Terminal Aerodrome Forecast
Issued by NWS

Home | Current Version | Previous Version | Text Only | Print | Product List | Glossary On
Versions: 1 2 3 4 5 6 7 8 9 10 11 12
000
FTUS41 KAKQ 041146 RRA
TAFPHF
TAF
KPHF 041146Z 0412/0512 VRB03KT P6SM BKN250
     FM042300 11004KT P6SM VCSH OVC070
     FM050600 16005KT 6SM -RA SCT025 OVC040
     FM050800 17004KT 6SM -RA SCT007 OVC015=

USA.gov is the U.S. government's official web portal to all federal, state and local government web resources and services.